Time;durP1;ratioP1;P1;durP2;ratioP2;P2;SDS_P1;SDS_P2;PMS_P1;PMS_P2;Temp;Humidity;BMP_temperature;BMP_pressure;BME280_temperature;BME280_humidity;BME280_pressure;Samples;Min_cycle;Max_cycle;Signal;HPM_P1;HPM_P2
2022/03/22 00:01:47;;;;;;;26.13;24.73;;;7.60;99.90;;;;;;4389646;32;20161;-60
2022/03/22 00:04:14;;;;;;;24.30;23.17;;;7.60;99.90;;;;;;4390082;32;20152;-61
2022/03/22 00:06:42;;;;;;;26.10;24.70;;;7.60;99.90;;;;;;4391660;32;20573;-60
2022/03/22 00:09:09;;;;;;;25.20;23.83;;;7.50;99.90;;;;;;4388231;32;20180;-60
2022/03/22 00:11:37;;;;;;;27.17;25.50;;;7.50;99.90;;;;;;4388250;32;20152;-60
2022/03/22 00:14:06;;;;;;;25.83;24.23;;;7.50;99.90;;;;;;4389865;32;20153;-60
2022/03/22 00:16:33;;;;;;;24.33;23.07;;;7.40;99.90;;;;;;4388788;32;20577;-61
2022/03/22 00:19:00;;;;;;;25.87;24.53;;;7.40;99.90;;;;;;4390025;32;20315;-60
2022/03/22 00:21:27;;;;;;;29.57;27.87;;;7.40;99.90;;;;;;4381334;32;20577;-60
2022/03/22 00:23:54;;;;;;;26.03;24.83;;;7.30;99.90;;;;;;4392052;32;20145;-60
2022/03/22 00:26:21;;;;;;;27.10;25.70;;;7.40;99.90;;;;;;4391621;32;20549;-60
2022/03/22 00:28:50;;;;;;;25.50;24.27;;;7.30;99.90;;;;;;4391042;32;20143;-60
2022/03/22 00:31:17;;;;;;;27.17;25.63;;;7.30;99.90;;;;;;4387551;32;20191;-61
2022/03/22 00:33:44;;;;;;;24.13;22.77;;;7.30;99.90;;;;;;4390611;32;20182;-61
2022/03/22 00:36:13;;;;;;;26.20;24.73;;;7.30;99.90;;;;;;4391122;32;20155;-60
2022/03/22 00:38:40;;;;;;;26.17;24.53;;;7.20;99.90;;;;;;4389307;32;20156;-61
2022/03/22 00:41:07;;;;;;;24.27;22.87;;;7.20;99.90;;;;;;4383975;32;20462;-60
2022/03/22 00:43:34;;;;;;;27.70;26.20;;;7.20;99.90;;;;;;4387423;32;20202;-60
2022/03/22 00:46:03;;;;;;;25.40;24.23;;;7.20;99.90;;;;;;4391686;32;20224;-60
2022/03/22 00:48:30;;;;;;;21.40;20.20;;;7.10;99.90;;;;;;4391024;32;20140;-60
2022/03/22 00:50:57;;;;;;;22.93;21.73;;;7.10;99.90;;;;;;4383706;32;20214;-59
2022/03/22 00:53:25;;;;;;;22.50;21.20;;;7.10;99.90;;;;;;4389970;32;20141;-59
2022/03/22 00:55:52;;;;;;;20.90;19.80;;;7.10;99.90;;;;;;4389620;32;20152;-62
2022/03/22 00:58:19;;;;;;;21.77;20.67;;;7.00;99.90;;;;;;4389234;32;20157;-60
2022/03/22 01:00:48;;;;;;;24.83;23.57;;;7.00;99.90;;;;;;4388320;32;20171;-59
2022/03/22 01:03:16;;;;;;;22.90;21.80;;;7.00;99.90;;;;;;4390622;32;20157;-60
2022/03/22 01:05:43;;;;;;;22.67;21.53;;;6.90;99.90;;;;;;4389450;32;20171;-59
2022/03/22 01:08:12;;;;;;;21.33;20.13;;;6.90;99.90;;;;;;4389477;32;20148;-59
2022/03/22 01:10:42;;;;;;;21.93;20.83;;;6.80;99.90;;;;;;4388552;32;20186;-62
2022/03/22 01:13:09;;;;;;;22.37;21.20;;;6.80;99.90;;;;;;4389829;32;20642;-62
2022/03/22 01:15:42;;;;;;;22.53;21.23;;;6.80;99.90;;;;;;4393053;32;20205;-59
2022/03/22 01:18:12;;;;;;;19.27;18.37;;;6.70;99.90;;;;;;4394021;32;20199;-59
2022/03/22 01:20:43;;;;;;;22.70;21.53;;;6.70;99.90;;;;;;4383879;32;20599;-61
2022/03/22 01:23:12;;;;;;;20.20;19.07;;;6.60;99.90;;;;;;4386476;32;20199;-61
2022/03/22 01:25:41;;;;;;;21.47;20.37;;;6.60;99.90;;;;;;4389422;32;20232;-62
2022/03/22 01:28:11;;;;;;;19.30;18.20;;;6.60;99.90;;;;;;4389014;32;20207;-60
2022/03/22 01:30:38;;;;;;;18.93;17.97;;;6.50;99.90;;;;;;4380136;32;20176;-60
2022/03/22 01:33:06;;;;;;;20.77;19.77;;;6.50;99.90;;;;;;4393911;32;20483;-59
2022/03/22 01:35:34;;;;;;;20.23;19.23;;;6.50;99.90;;;;;;4386773;32;20592;-60
2022/03/22 01:38:02;;;;;;;18.10;17.20;;;6.50;99.90;;;;;;4377759;32;20146;-60
2022/03/22 01:40:30;;;;;;;19.50;18.40;;;6.50;99.90;;;;;;4391538;32;20160;-60
2022/03/22 01:42:58;;;;;;;18.20;17.20;;;6.50;99.90;;;;;;4384060;32;20148;-60
2022/03/22 01:45:26;;;;;;;20.13;18.93;;;6.40;99.90;;;;;;4394000;32;20164;-60
2022/03/22 01:47:58;;;;;;;18.67;17.57;;;6.40;99.90;;;;;;4392297;32;20163;-59
2022/03/22 01:50:25;;;;;;;18.87;17.80;;;6.40;99.90;;;;;;4391689;32;20144;-61
2022/03/22 01:52:53;;;;;;;19.23;18.23;;;6.40;99.90;;;;;;4389223;32;20198;-60
2022/03/22 01:55:23;;;;;;;20.43;19.40;;;6.40;99.90;;;;;;4391501;32;20172;-59
2022/03/22 01:57:50;;;;;;;19.03;17.93;;;6.40;99.90;;;;;;4392064;32;20584;-60
2022/03/22 02:00:19;;;;;;;18.83;17.77;;;6.40;99.90;;;;;;4381990;32;20439;-60
2022/03/22 02:05:55;;;;;;;19.37;18.37;;;6.50;99.90;;;;;;4391680;32;20163;-60
2022/03/22 02:08:25;;;;;;;22.53;21.30;;;6.50;99.90;;;;;;4392444;32;20546;-60
2022/03/22 02:10:54;;;;;;;21.87;20.67;;;6.50;99.90;;;;;;4386350;32;20167;-60
2022/03/22 02:13:21;;;;;;;22.33;21.20;;;6.50;99.90;;;;;;4391947;32;20148;-60
2022/03/22 02:15:51;;;;;;;21.47;20.27;;;6.50;99.90;;;;;;4390924;32;20175;-60
2022/03/22 02:18:20;;;;;;;22.23;21.03;;;6.50;99.90;;;;;;4391517;32;20253;-60
2022/03/22 02:20:47;;;;;;;22.53;21.33;;;6.50;99.90;;;;;;4391294;32;20194;-60
2022/03/22 02:23:20;;;;;;;24.27;22.97;;;6.40;99.90;;;;;;4391118;32;20148;-60
2022/03/22 02:25:50;;;;;;;22.67;21.33;;;6.40;99.90;;;;;;4389193;32;20161;-60
2022/03/22 02:28:20;;;;;;;26.53;25.10;;;6.40;99.90;;;;;;4391631;32;20534;-60
2022/03/22 02:30:48;;;;;;;30.10;27.60;;;6.40;99.90;;;;;;4392144;32;20159;-60
2022/03/22 02:33:15;;;;;;;34.47;32.80;;;6.40;99.90;;;;;;4384430;32;20198;-60
2022/03/22 02:35:42;;;;;;;39.70;37.90;;;6.40;99.90;;;;;;4380515;32;20606;-60
2022/03/22 02:38:09;;;;;;;49.77;47.57;;;6.40;99.90;;;;;;4392981;32;20206;-60
2022/03/22 02:40:36;;;;;;;43.20;41.27;;;6.40;99.90;;;;;;4392727;32;20153;-60
2022/03/22 02:43:05;;;;;;;48.77;46.33;;;6.40;99.90;;;;;;4386544;32;20149;-60
2022/03/22 02:45:32;;;;;;;49.03;46.73;;;6.30;99.90;;;;;;4391698;32;20214;-60
2022/03/22 02:47:59;;;;;;;48.37;46.00;;;6.30;99.90;;;;;;4391425;32;20197;-60
2022/03/22 02:50:27;;;;;;;45.07;43.07;;;6.30;99.90;;;;;;4389682;32;20141;-60
2022/03/22 02:52:54;;;;;;;47.30;45.07;;;6.30;99.90;;;;;;4389631;32;20206;-60
2022/03/22 02:55:22;;;;;;;46.83;44.47;;;6.30;99.90;;;;;;4392467;32;20148;-60
2022/03/22 02:57:49;;;;;;;45.37;43.40;;;6.30;99.90;;;;;;4391714;32;20188;-60
2022/03/22 03:00:18;;;;;;;41.07;39.13;;;6.20;99.90;;;;;;4390797;32;20176;-60
2022/03/22 03:02:47;;;;;;;42.43;40.40;;;6.20;99.90;;;;;;4390602;32;20586;-60
2022/03/22 03:05:15;;;;;;;44.00;41.77;;;6.20;99.90;;;;;;4378029;32;22184;-60
2022/03/22 03:07:42;;;;;;;38.27;36.57;;;6.20;99.90;;;;;;4382579;32;20462;-60
2022/03/22 03:10:10;;;;;;;39.57;37.57;;;6.20;99.90;;;;;;4382510;32;20213;-60
2022/03/22 03:12:37;;;;;;;38.37;36.70;;;6.10;99.90;;;;;;4388835;32;20577;-60
2022/03/22 03:15:07;;;;;;;39.47;37.70;;;6.10;99.90;;;;;;4383343;32;20197;-60
2022/03/22 03:17:35;;;;;;;35.60;33.83;;;6.10;99.90;;;;;;4391505;32;20144;-60
2022/03/22 03:20:02;;;;;;;36.47;34.60;;;6.00;99.90;;;;;;4391162;32;20468;-60
2022/03/22 03:22:29;;;;;;;36.97;35.20;;;6.00;99.90;;;;;;4391003;32;20183;-60
2022/03/22 03:24:56;;;;;;;37.20;35.57;;;6.00;99.90;;;;;;4380425;32;20144;-60
2022/03/22 03:27:23;;;;;;;38.10;36.33;;;5.90;99.90;;;;;;4390384;32;20148;-60
2022/03/22 03:29:51;;;;;;;39.50;37.70;;;5.90;99.90;;;;;;4389884;32;20249;-60
2022/03/22 03:32:18;;;;;;;36.90;35.20;;;5.90;99.90;;;;;;4386321;32;20253;-60
2022/03/22 03:34:47;;;;;;;36.33;34.60;;;5.90;99.90;;;;;;4388051;32;20572;-60
2022/03/22 03:37:14;;;;;;;38.77;37.00;;;5.90;99.90;;;;;;4391504;32;20615;-60
2022/03/22 03:39:40;;;;;;;40.27;38.23;;;5.90;99.90;;;;;;4390661;32;20204;-60
2022/03/22 03:42:08;;;;;;;39.60;37.67;;;5.90;99.90;;;;;;4389186;32;20171;-60
2022/03/22 03:47:23;;;;;;;40.20;38.23;;;5.80;99.90;;;;;;4376100;32;20179;-60
2022/03/22 03:49:54;;;;;;;39.70;37.80;;;5.80;99.90;;;;;;4379398;32;20155;-59
2022/03/22 03:52:22;;;;;;;45.60;43.47;;;5.80;99.90;;;;;;4390525;32;20171;-60
2022/03/22 03:54:50;;;;;;;47.30;45.23;;;5.80;99.90;;;;;;4386750;32;20221;-60
2022/03/22 03:57:18;;;;;;;49.03;46.70;;;5.80;99.90;;;;;;4384479;32;20468;-60
2022/03/22 03:59:45;;;;;;;49.80;47.50;;;5.70;99.90;;;;;;4389292;32;20254;-60
2022/03/22 04:02:12;;;;;;;42.87;40.93;;;5.70;99.90;;;;;;4389945;32;20194;-60
2022/03/22 04:04:40;;;;;;;46.43;44.40;;;5.70;99.90;;;;;;4388999;32;20614;-60
2022/03/22 04:07:09;;;;;;;44.27;42.30;;;5.70;99.90;;;;;;4380500;32;20156;-60
2022/03/22 04:09:39;;;;;;;41.70;39.77;;;5.70;99.90;;;;;;4391069;32;20217;-60
2022/03/22 04:12:07;;;;;;;39.03;37.27;;;5.70;99.90;;;;;;4389593;32;20152;-60
2022/03/22 04:14:34;;;;;;;47.23;45.10;;;5.60;99.90;;;;;;4389146;32;20148;-60
2022/03/22 04:17:01;;;;;;;44.10;42.07;;;5.60;99.90;;;;;;4384482;32;20152;-59
2022/03/22 04:19:28;;;;;;;42.60;40.70;;;5.60;99.90;;;;;;4391339;32;20152;-60
2022/03/22 04:21:56;;;;;;;43.40;41.33;;;5.60;99.90;;;;;;4389678;32;20178;-60
2022/03/22 04:24:24;;;;;;;46.77;44.77;;;5.60;99.90;;;;;;4390501;32;20140;-60
2022/03/22 04:26:51;;;;;;;47.23;45.10;;;5.60;99.90;;;;;;4377830;32;20565;-61
2022/03/22 04:34:47;;;;;;;44.13;42.10;;;5.50;99.90;;;;;;4390618;32;20261;-60
2022/03/22 04:37:16;;;;;;;47.60;45.33;;;5.60;99.90;;;;;;4388211;32;20206;-60
2022/03/22 04:39:45;;;;;;;51.23;48.93;;;5.50;99.90;;;;;;4389392;32;20148;-59
2022/03/22 04:42:14;;;;;;;50.77;48.47;;;5.50;99.90;;;;;;4380591;32;20176;-60
2022/03/22 04:44:41;;;;;;;58.87;56.43;;;5.50;99.90;;;;;;4375885;32;20168;-60
2022/03/22 04:47:09;;;;;;;57.40;54.93;;;5.50;99.90;;;;;;4377288;32;20164;-60
2022/03/22 04:49:36;;;;;;;60.83;58.03;;;5.50;99.90;;;;;;4392745;32;20182;-60
2022/03/22 04:57:43;;;;;;;56.50;53.73;;;5.50;99.90;;;;;;4326878;33;20228;-60
2022/03/22 05:00:11;;;;;;;69.97;66.97;;;5.40;99.90;;;;;;4330346;33;20251;-60
2022/03/22 05:02:37;;;;;;;68.33;65.23;;;5.40;99.90;;;;;;4323842;33;20197;-59
2022/03/22 05:05:05;;;;;;;66.00;63.10;;;5.30;99.90;;;;;;4317041;33;20557;-60
2022/03/22 05:07:32;;;;;;;58.50;55.83;;;5.40;99.90;;;;;;4318064;33;20153;-59
2022/03/22 05:10:00;;;;;;;60.70;58.13;;;5.30;99.90;;;;;;4317944;33;20246;-59
2022/03/22 05:12:27;;;;;;;65.17;62.33;;;5.30;99.90;;;;;;4326658;33;20180;-60
2022/03/22 05:14:54;;;;;;;61.97;58.93;;;5.30;99.90;;;;;;4316617;33;20164;-60
2022/03/22 05:17:23;;;;;;;62.77;59.93;;;5.30;99.90;;;;;;4322442;33;20157;-60
2022/03/22 05:19:50;;;;;;;48.73;46.63;;;5.30;99.90;;;;;;4317999;33;20478;-59
2022/03/22 05:22:18;;;;;;;54.60;52.13;;;5.30;99.90;;;;;;4332111;33;20205;-60
2022/03/22 05:24:45;;;;;;;55.27;52.90;;;5.30;99.90;;;;;;4331830;33;20177;-60
2022/03/22 05:27:15;;;;;;;53.73;51.33;;;5.30;99.90;;;;;;4324968;33;20177;-60
2022/03/22 05:29:42;;;;;;;51.37;49.07;;;5.30;99.90;;;;;;4332659;32;20165;-60
2022/03/22 05:32:12;;;;;;;43.53;41.57;;;5.40;99.90;;;;;;4393066;32;20198;-60
2022/03/22 05:34:39;;;;;;;40.23;38.47;;;5.40;99.90;;;;;;4392993;32;20563;-60
2022/03/22 05:37:06;;;;;;;37.67;36.03;;;5.40;99.90;;;;;;4389799;32;20205;-58
2022/03/22 05:39:35;;;;;;;41.67;39.67;;;5.30;99.90;;;;;;4392208;32;20152;-60
2022/03/22 05:42:04;;;;;;;46.67;44.47;;;5.30;99.90;;;;;;4382002;32;20183;-61
2022/03/22 05:44:33;;;;;;;45.23;43.13;;;5.40;99.90;;;;;;4385847;32;20606;-59
2022/03/22 05:47:00;;;;;;;46.17;43.80;;;5.40;99.90;;;;;;4390564;32;20206;-60
2022/03/22 05:49:27;;;;;;;50.77;48.43;;;5.40;99.90;;;;;;4379171;32;20148;-60
2022/03/22 05:51:54;;;;;;;46.87;44.83;;;5.40;99.90;;;;;;4382816;32;20213;-60
2022/03/22 05:54:21;;;;;;;41.23;39.37;;;5.50;99.90;;;;;;4393992;32;20144;-59
2022/03/22 05:56:48;;;;;;;36.13;34.60;;;5.50;99.90;;;;;;4390570;32;20157;-59
2022/03/22 05:59:15;;;;;;;35.67;34.00;;;5.50;99.90;;;;;;4387019;32;20179;-59
2022/03/22 06:01:44;;;;;;;35.33;33.67;;;5.60;99.90;;;;;;4391601;32;20152;-59
2022/03/22 06:04:11;;;;;;;38.40;36.57;;;5.70;99.90;;;;;;4391724;32;20152;-59
2022/03/22 06:06:38;;;;;;;35.07;33.50;;;5.70;99.90;;;;;;4391989;32;20519;-59
2022/03/22 06:09:05;;;;;;;36.37;34.67;;;5.80;99.90;;;;;;4383971;32;20145;-59
2022/03/22 06:11:34;;;;;;;34.87;33.37;;;5.90;99.90;;;;;;4392824;32;20225;-59
2022/03/22 06:14:01;;;;;;;32.30;30.57;;;6.00;99.90;;;;;;4390448;32;20245;-59
2022/03/22 06:16:32;;;;;;;36.53;34.53;;;6.10;99.90;;;;;;4390024;32;20213;-59
2022/03/22 06:19:00;;;;;;;34.87;33.37;;;6.20;99.90;;;;;;4388555;32;20148;-60
2022/03/22 06:21:28;;;;;;;36.60;34.93;;;6.30;99.90;;;;;;4388226;32;20167;-59
2022/03/22 06:23:55;;;;;;;34.40;32.70;;;6.40;99.90;;;;;;4389698;32;20225;-59
2022/03/22 06:26:22;;;;;;;37.87;36.03;;;6.40;99.90;;;;;;4390586;32;20205;-60
2022/03/22 06:28:49;;;;;;;35.20;33.60;;;6.60;99.90;;;;;;4389411;32;20152;-59
2022/03/22 06:31:16;;;;;;;35.23;33.33;;;6.70;99.90;;;;;;4389914;32;20203;-59
2022/03/22 06:33:43;;;;;;;37.43;35.70;;;6.80;99.90;;;;;;4392508;32;20572;-59
2022/03/22 06:36:12;;;;;;;34.30;32.73;;;6.90;99.90;;;;;;4390924;32;20148;-59
2022/03/22 06:38:39;;;;;;;32.77;31.03;;;7.00;99.90;;;;;;4388587;32;20141;-59
2022/03/22 06:41:06;;;;;;;34.83;33.33;;;7.10;99.90;;;;;;4388466;32;20581;-60
2022/03/22 06:43:33;;;;;;;34.03;32.40;;;7.20;99.90;;;;;;4391907;32;20504;-61
2022/03/22 06:46:00;;;;;;;41.40;39.43;;;7.40;99.90;;;;;;4389698;32;20678;-59
2022/03/22 06:48:27;;;;;;;43.07;41.13;;;7.50;99.90;;;;;;4388171;32;20223;-60
2022/03/22 06:50:54;;;;;;;45.87;43.90;;;7.60;99.90;;;;;;4390160;32;20227;-60
2022/03/22 06:53:22;;;;;;;47.30;45.23;;;7.80;99.90;;;;;;4390502;32;20222;-60
2022/03/22 06:55:51;;;;;;;47.23;45.13;;;7.90;99.90;;;;;;4390778;32;20145;-60
2022/03/22 06:58:21;;;;;;;48.07;45.97;;;8.10;99.90;;;;;;4392153;32;20466;-60
2022/03/22 07:00:48;;;;;;;64.30;61.23;;;8.30;99.90;;;;;;4384571;32;20294;-60
2022/03/22 07:03:15;;;;;;;60.73;57.97;;;8.40;99.90;;;;;;4385625;32;20238;-60
2022/03/22 07:05:45;;;;;;;70.43;67.43;;;8.60;99.90;;;;;;4388899;32;20153;-60
2022/03/22 07:08:13;;;;;;;71.30;68.10;;;8.70;99.90;;;;;;4386786;32;20217;-60
2022/03/22 07:11:47;;;;;;;68.77;65.67;;;8.90;99.90;;;;;;4390016;32;20189;-60
2022/03/22 07:13:32;;;;;;;66.27;63.27;;;9.00;99.90;;;;;;4388321;32;20571;-60
2022/03/22 07:16:00;;;;;;;67.40;64.30;;;9.20;99.90;;;;;;4389984;32;20156;-60
2022/03/22 07:18:27;;;;;;;69.43;66.27;;;9.40;99.90;;;;;;4390447;32;20154;-60
2022/03/22 07:20:59;;;;;;;76.87;73.57;;;9.70;99.90;;;;;;4388191;32;20204;-60
2022/03/22 07:23:26;;;;;;;72.77;69.57;;;9.80;99.90;;;;;;4386258;32;20559;-59
2022/03/22 07:25:54;;;;;;;79.47;76.10;;;10.00;99.90;;;;;;4388950;32;20215;-60
2022/03/22 07:28:21;;;;;;;80.40;77.07;;;10.10;99.90;;;;;;4387895;32;20627;-60
2022/03/22 07:30:51;;;;;;;87.53;83.80;;;10.20;99.90;;;;;;4387003;32;20154;-60
2022/03/22 07:33:22;;;;;;;78.50;75.20;;;10.30;99.90;;;;;;4390442;32;20151;-59
2022/03/22 07:35:56;;;;;;;92.33;88.43;;;10.40;99.90;;;;;;4388348;32;20155;-60
2022/03/22 07:38:25;;;;;;;84.60;80.83;;;10.50;99.90;;;;;;4390000;32;20194;-59
2022/03/22 07:40:53;;;;;;;81.63;78.13;;;10.70;99.90;;;;;;4386127;32;20204;-59
2022/03/22 07:43:22;;;;;;;88.37;84.60;;;10.80;99.90;;;;;;4389170;32;20179;-60
2022/03/22 07:46:03;;;;;;;87.63;83.90;;;11.00;99.90;;;;;;4389830;32;20153;-60
2022/03/22 07:48:39;;;;;;;88.37;84.50;;;11.20;99.90;;;;;;4390269;32;20178;-59
2022/03/22 07:53:51;;;;;;;90.73;86.80;;;11.50;99.90;;;;;;4390697;32;20526;-57
2022/03/22 07:56:21;;;;;;;99.73;95.53;;;11.70;99.90;;;;;;4388300;32;20156;-59
2022/03/22 07:58:49;;;;;;;110.23;105.60;;;11.90;99.90;;;;;;4389441;32;20160;-58
2022/03/22 08:01:19;;;;;;;109.57;104.90;;;12.10;99.90;;;;;;4336090;32;1688714;-60
2022/03/22 08:03:46;;;;;;;101.87;97.37;;;12.30;99.90;;;;;;4388006;32;20237;-60
2022/03/22 08:06:18;;;;;;;96.40;92.20;;;12.40;99.90;;;;;;4386823;32;20208;-59
2022/03/22 08:08:47;;;;;;;100.37;96.13;;;12.60;99.90;;;;;;4389119;32;20171;-59
2022/03/22 08:11:15;;;;;;;101.73;97.47;;;12.80;99.90;;;;;;4389153;32;20190;-60
2022/03/22 08:13:44;;;;;;;101.37;97.07;;;13.00;99.90;;;;;;4389112;32;20132;-60
2022/03/22 08:16:16;;;;;;;95.10;90.97;;;13.20;99.90;;;;;;4389989;32;20180;-59
2022/03/22 08:18:43;;;;;;;93.27;89.13;;;13.40;99.90;;;;;;4388557;32;20222;-59
2022/03/22 08:21:10;;;;;;;91.80;87.80;;;13.60;99.90;;;;;;4387248;32;20568;-59
2022/03/22 08:23:37;;;;;;;85.30;81.60;;;13.80;99.90;;;;;;4395201;32;20556;-59
2022/03/22 08:26:04;;;;;;;84.53;80.83;;;14.00;99.90;;;;;;4393220;32;20144;-60
2022/03/22 08:28:32;;;;;;;87.13;83.43;;;14.20;99.90;;;;;;4395257;32;20673;-59
2022/03/22 08:30:59;;;;;;;77.50;74.00;;;14.40;99.90;;;;;;4393124;32;20204;-58
2022/03/22 08:33:31;;;;;;;77.50;74.03;;;14.60;99.60;;;;;;4392709;32;20135;-59
2022/03/22 08:36:01;;;;;;;73.87;70.53;;;14.90;99.30;;;;;;4394449;32;20202;-59
2022/03/22 08:38:28;;;;;;;75.77;72.20;;;15.10;98.80;;;;;;4396069;32;20549;-60
2022/03/22 08:40:58;;;;;;;71.70;68.47;;;15.30;98.40;;;;;;4393082;32;20140;-59
2022/03/22 08:43:26;;;;;;;77.70;74.33;;;15.50;97.70;;;;;;4395619;32;20585;-59
2022/03/22 08:45:54;;;;;;;68.50;65.50;;;15.70;97.30;;;;;;4394218;32;20197;-59
2022/03/22 08:48:29;;;;;;;68.13;65.17;;;15.80;96.80;;;;;;4392236;32;20575;-60
2022/03/22 08:50:58;;;;;;;71.23;67.87;;;15.80;96.30;;;;;;4394467;32;20500;-59
2022/03/22 08:53:26;;;;;;;65.23;62.27;;;15.80;96.40;;;;;;4392532;32;20132;-59
2022/03/22 08:55:53;;;;;;;68.37;65.37;;;15.80;96.30;;;;;;4394264;32;20136;-59
2022/03/22 08:58:24;;;;;;;74.67;71.27;;;15.80;95.90;;;;;;4393806;32;20151;-60
2022/03/22 09:00:51;;;;;;;69.20;66.10;;;15.70;96.50;;;;;;4393451;32;20171;-59
2022/03/22 09:03:19;;;;;;;69.10;65.97;;;15.70;96.50;;;;;;4391389;32;20152;-60
2022/03/22 09:06:08;;;;;;;75.50;72.13;;;15.90;96.00;;;;;;4392221;32;20144;-59
2022/03/22 09:08:35;;;;;;;76.87;73.47;;;15.90;96.20;;;;;;4392211;32;20234;-59
2022/03/22 09:11:02;;;;;;;74.97;71.63;;;15.90;96.40;;;;;;4394034;32;20252;-59
2022/03/22 09:13:29;;;;;;;77.77;74.30;;;16.00;96.50;;;;;;4392333;32;20479;-59
2022/03/22 09:15:58;;;;;;;74.27;71.00;;;16.00;96.20;;;;;;4393499;32;20469;-60
2022/03/22 09:18:26;;;;;;;75.10;71.77;;;16.00;96.10;;;;;;4394931;32;20221;-59
2022/03/22 09:20:56;;;;;;;77.80;74.43;;;16.00;96.10;;;;;;4390954;32;20230;-59
2022/03/22 09:23:24;;;;;;;74.33;71.07;;;16.10;95.90;;;;;;4391213;32;20557;-61
2022/03/22 09:25:51;;;;;;;81.27;77.80;;;16.10;95.80;;;;;;4394345;32;20179;-60
2022/03/22 09:28:18;;;;;;;84.63;80.80;;;16.30;96.10;;;;;;4394225;32;20162;-60
2022/03/22 09:30:48;;;;;;;81.03;77.60;;;16.30;95.90;;;;;;4369995;32;20172;-60
2022/03/22 09:33:15;;;;;;;76.93;73.33;;;16.40;95.90;;;;;;4390834;32;20170;-61
2022/03/22 09:35:42;;;;;;;78.10;74.63;;;16.50;95.00;;;;;;4390874;32;20141;-60
2022/03/22 09:38:11;;;;;;;80.73;77.13;;;16.50;95.30;;;;;;4391045;32;20158;-60
2022/03/22 09:40:38;;;;;;;82.40;78.80;;;16.50;95.30;;;;;;4391468;32;20172;-60
2022/03/22 09:43:07;;;;;;;74.03;70.73;;;16.60;95.40;;;;;;4391704;32;20519;-60
2022/03/22 09:45:35;;;;;;;79.60;76.17;;;16.60;95.00;;;;;;4389707;32;20145;-61
2022/03/22 09:48:02;;;;;;;76.17;72.87;;;16.50;94.90;;;;;;4391490;32;20188;-61
2022/03/22 09:53:18;;;;;;;74.07;70.80;;;16.50;95.30;;;;;;4384013;32;20166;-61
2022/03/22 09:55:45;;;;;;;67.83;64.83;;;16.60;94.80;;;;;;4388448;32;20140;-60
2022/03/22 09:58:12;;;;;;;73.87;70.57;;;16.70;94.60;;;;;;4382884;32;20186;-61
2022/03/22 10:00:40;;;;;;;76.70;73.30;;;16.70;94.60;;;;;;4375643;32;20141;-61
2022/03/22 10:03:07;;;;;;;75.97;72.57;;;16.80;94.20;;;;;;4368718;32;20141;-59
2022/03/22 10:05:36;;;;;;;78.43;74.73;;;16.90;94.50;;;;;;4377401;32;20611;-59
2022/03/22 10:08:07;;;;;;;73.80;70.50;;;17.00;94.30;;;;;;4367971;32;20224;-59
2022/03/22 10:10:36;;;;;;;77.60;74.27;;;17.20;94.40;;;;;;4368517;32;20172;-60
2022/03/22 10:13:04;;;;;;;81.93;78.33;;;17.30;94.30;;;;;;4376402;32;20451;-58
2022/03/22 10:15:33;;;;;;;75.30;72.07;;;17.30;93.70;;;;;;4365845;32;20199;-61
2022/03/22 10:18:07;;;;;;;77.77;74.07;;;17.40;93.30;;;;;;4369146;32;20141;-58
2022/03/22 10:20:37;;;;;;;78.03;74.73;;;17.30;93.00;;;;;;4369756;32;20140;-59
2022/03/22 10:23:07;;;;;;;83.90;80.17;;;17.40;93.40;;;;;;4367421;32;20144;-59
2022/03/22 10:25:42;;;;;;;88.33;84.40;;;17.40;93.30;;;;;;4366575;32;20171;-58
2022/03/22 10:28:10;;;;;;;80.13;76.53;;;17.50;93.30;;;;;;4365263;32;20223;-61
2022/03/22 10:30:38;;;;;;;76.30;72.93;;;17.50;93.60;;;;;;4366204;32;20691;-60
2022/03/22 10:33:05;;;;;;;88.97;85.17;;;17.60;93.60;;;;;;4372089;32;20175;-60
2022/03/22 10:35:38;;;;;;;83.63;80.13;;;17.60;93.00;;;;;;4368981;32;20160;-61
2022/03/22 10:38:06;;;;;;;75.77;72.57;;;17.70;92.70;;;;;;4367332;32;20212;-59
2022/03/22 10:40:38;;;;;;;79.40;75.90;;;17.70;92.50;;;;;;4363872;32;20234;-60
2022/03/22 10:43:07;;;;;;;74.57;71.17;;;17.80;92.20;;;;;;4368945;32;20199;-60
2022/03/22 10:45:43;;;;;;;76.07;72.50;;;17.80;91.70;;;;;;4370383;32;20576;-60
2022/03/22 10:48:16;;;;;;;82.67;79.13;;;17.90;92.40;;;;;;4370934;32;20140;-60
2022/03/22 10:50:51;;;;;;;83.30;79.57;;;17.90;92.40;;;;;;4368974;32;20141;-60
2022/03/22 10:53:20;;;;;;;82.87;79.07;;;18.00;92.10;;;;;;4371289;32;20214;-61
2022/03/22 10:55:49;;;;;;;74.83;71.53;;;18.20;92.30;;;;;;4370709;32;20199;-61
2022/03/22 10:58:20;;;;;;;87.33;83.43;;;18.20;91.80;;;;;;4370744;32;20557;-60
2022/03/22 11:00:48;;;;;;;82.73;79.00;;;18.20;91.90;;;;;;4380248;32;20148;-60
2022/03/22 11:03:17;;;;;;;84.87;81.13;;;18.30;92.10;;;;;;4386923;32;20183;-59
2022/03/22 11:05:49;;;;;;;81.20;77.73;;;18.40;92.10;;;;;;4378484;32;20141;-60
2022/03/22 11:08:19;;;;;;;93.00;88.97;;;18.50;91.40;;;;;;4384402;32;20203;-60
2022/03/22 11:10:46;;;;;;;89.97;85.77;;;18.40;92.10;;;;;;4385314;32;20221;-60
2022/03/22 11:13:14;;;;;;;86.77;82.93;;;18.40;92.10;;;;;;4387125;32;20195;-61
2022/03/22 11:15:46;;;;;;;81.80;78.17;;;18.40;91.70;;;;;;4382553;32;20189;-60
2022/03/22 11:18:14;;;;;;;95.83;91.73;;;18.40;91.50;;;;;;4387272;32;20136;-59
2022/03/22 11:20:49;;;;;;;88.70;84.83;;;18.40;92.00;;;;;;4387272;32;20136;-61
2022/03/22 11:23:20;;;;;;;80.17;76.57;;;18.40;91.40;;;;;;4388143;32;20178;-60
2022/03/22 11:25:47;;;;;;;83.47;79.90;;;18.30;91.10;;;;;;4386360;32;20215;-60
2022/03/22 11:28:22;;;;;;;86.63;82.73;;;18.00;91.20;;;;;;4384020;32;20227;-61
2022/03/22 11:30:50;;;;;;;85.83;81.97;;;18.10;91.50;;;;;;4388220;32;20155;-60
2022/03/22 11:36:17;;;;;;;76.53;73.10;;;18.30;89.20;;;;;;4387832;32;20194;-61
2022/03/22 11:38:50;;;;;;;68.10;65.00;;;18.40;87.40;;;;;;4378405;32;20141;-60
2022/03/22 11:44:11;;;;;;;72.00;68.80;;;18.60;87.20;;;;;;4376477;32;20159;-61
2022/03/22 11:46:38;;;;;;;69.57;66.63;;;18.60;85.80;;;;;;4377128;32;20149;-60
2022/03/22 11:49:16;;;;;;;70.70;67.60;;;18.70;85.10;;;;;;4375694;32;20133;-60
2022/03/22 11:51:51;;;;;;;75.90;72.60;;;18.80;86.80;;;;;;4376462;32;20675;-60
2022/03/22 11:54:21;;;;;;;70.63;67.70;;;18.90;85.40;;;;;;4379335;32;20163;-60
2022/03/22 11:56:53;;;;;;;73.80;70.63;;;19.00;84.80;;;;;;4383180;32;20565;-61
2022/03/22 11:59:22;;;;;;;69.17;66.23;;;19.00;84.50;;;;;;4375215;32;20205;-61
2022/03/22 12:02:00;;;;;;;73.80;70.30;;;19.10;84.00;;;;;;4376223;32;20152;-61
2022/03/22 12:04:35;;;;;;;72.17;69.13;;;19.10;83.20;;;;;;4377244;32;20136;-60
2022/03/22 12:07:03;;;;;;;68.67;65.67;;;19.20;83.00;;;;;;4378200;32;20216;-61
2022/03/22 12:09:30;;;;;;;66.50;63.60;;;19.20;81.40;;;;;;4377212;32;20151;-60
2022/03/22 12:11:58;;;;;;;77.43;74.03;;;19.20;81.10;;;;;;4378875;32;20487;-60
2022/03/22 12:14:35;;;;;;;66.03;63.03;;;19.20;81.30;;;;;;4390331;32;20144;-60
2022/03/22 12:17:03;;;;;;;68.73;65.73;;;19.10;82.00;;;;;;4386715;32;20148;-60
2022/03/22 12:19:32;;;;;;;63.73;60.93;;;19.10;80.70;;;;;;4375933;32;20156;-60
2022/03/22 12:22:04;;;;;;;65.43;62.57;;;19.10;81.20;;;;;;4375215;32;20202;-60
2022/03/22 12:24:34;;;;;;;67.70;64.83;;;19.20;80.10;;;;;;4377055;32;20166;-61
2022/03/22 12:27:03;;;;;;;68.50;65.70;;;19.20;80.60;;;;;;4377003;32;20487;-61
2022/03/22 12:29:31;;;;;;;67.93;64.97;;;19.30;79.50;;;;;;4387281;32;20144;-61
2022/03/22 12:32:06;;;;;;;71.50;68.17;;;19.30;78.90;;;;;;4390312;32;20148;-61
2022/03/22 12:34:36;;;;;;;70.90;67.83;;;19.30;79.70;;;;;;4390590;32;20171;-61
2022/03/22 12:37:03;;;;;;;72.53;69.43;;;19.30;79.80;;;;;;4388229;32;20137;-61
2022/03/22 12:39:30;;;;;;;65.70;62.90;;;19.40;78.80;;;;;;4374766;32;20491;-61
2022/03/22 12:41:57;;;;;;;72.77;69.67;;;19.40;77.30;;;;;;4378147;32;20268;-61
2022/03/22 12:44:27;;;;;;;64.93;62.23;;;19.50;76.70;;;;;;4391727;32;20137;-60
2022/03/22 12:46:56;;;;;;;66.80;63.93;;;19.50;76.50;;;;;;4388013;32;20152;-60
2022/03/22 12:49:27;;;;;;;66.77;64.07;;;19.50;76.80;;;;;;4376539;32;20137;-61
2022/03/22 12:51:54;;;;;;;58.37;55.80;;;19.50;75.60;;;;;;4374932;32;20206;-60
2022/03/22 12:54:23;;;;;;;61.67;58.97;;;19.50;75.10;;;;;;4379827;32;20163;-61
2022/03/22 12:56:50;;;;;;;65.13;62.23;;;19.40;76.20;;;;;;4378878;32;20149;-62
2022/03/22 12:59:21;;;;;;;69.50;66.57;;;19.40;76.40;;;;;;4387143;32;20172;-61
2022/03/22 13:01:57;;;;;;;68.37;65.37;;;19.50;76.50;;;;;;4389184;32;20140;-60
2022/03/22 13:04:26;;;;;;;64.37;61.67;;;19.50;76.70;;;;;;4390136;32;20171;-62
2022/03/22 13:07:01;;;;;;;68.20;65.37;;;19.50;76.60;;;;;;4389644;32;20188;-60
2022/03/22 13:12:16;;;;;;;73.87;70.70;;;19.60;75.80;;;;;;4388011;32;20215;-61